Time;durP1;ratioP1;P1;durP2;ratioP2;P2;SDS_P1;SDS_P2;PMS_P1;PMS_P2;Temp;Humidity;BMP_temperature;BMP_pressure;BME280_temperature;BME280_humidity;BME280_pressure;Samples;Min_cycle;Max_cycle;Signal;HPM_P1;HPM_P2
2022/10/21 00:00:04;;;;;;;21.08;11.02;;;10.30;99.90;;;;;;5046884;28;20053;-66
2022/10/21 00:02:30;;;;;;;19.48;11.15;;;10.40;99.90;;;;;;5043598;28;20048;-67
2022/10/21 00:04:55;;;;;;;16.38;11.40;;;10.50;99.90;;;;;;5028031;28;20041;-66
2022/10/21 00:07:21;;;;;;;23.65;11.18;;;10.50;99.90;;;;;;5045613;28;20040;-66
2022/10/21 00:09:47;;;;;;;17.30;11.55;;;10.50;99.90;;;;;;5037630;28;20529;-67
2022/10/21 00:12:12;;;;;;;24.95;12.00;;;10.50;99.90;;;;;;5046121;28;20055;-66
2022/10/21 00:14:38;;;;;;;16.55;11.57;;;10.50;99.90;;;;;;5044808;28;20124;-67
2022/10/21 00:17:04;;;;;;;19.58;11.65;;;10.50;99.90;;;;;;5028897;28;20049;-66
2022/10/21 00:19:29;;;;;;;22.42;12.77;;;10.60;99.90;;;;;;5044652;28;20560;-67
2022/10/21 00:21:55;;;;;;;25.70;12.13;;;10.60;99.90;;;;;;5046944;28;20048;-67
2022/10/21 00:24:21;;;;;;;31.17;13.18;;;10.50;99.90;;;;;;5027030;28;20045;-66
2022/10/21 00:26:49;;;;;;;21.30;12.15;;;10.50;99.90;;;;;;5012129;28;20052;-66
2022/10/21 00:29:15;;;;;;;19.55;12.15;;;10.50;99.90;;;;;;5050023;28;20505;-66
2022/10/21 00:31:40;;;;;;;19.70;12.45;;;10.50;99.90;;;;;;5048851;28;20041;-66
2022/10/21 00:34:06;;;;;;;26.20;12.07;;;10.40;99.90;;;;;;5031690;28;20060;-67
2022/10/21 00:36:32;;;;;;;23.90;11.65;;;10.40;99.90;;;;;;5046198;28;20041;-66
2022/10/21 00:38:58;;;;;;;25.55;12.00;;;10.40;99.90;;;;;;5049538;28;20060;-66
2022/10/21 00:41:23;;;;;;;18.63;12.68;;;10.40;99.90;;;;;;5048754;28;20474;-66
2022/10/21 00:44:01;;;;;;;15.38;10.35;;;10.40;99.90;;;;;;5049591;28;20412;-66
2022/10/21 00:46:52;;;;;;;15.82;11.73;;;10.40;99.90;;;;;;5049181;28;20094;-66
2022/10/21 00:49:26;;;;;;;24.25;11.15;;;10.30;99.90;;;;;;5030961;28;20049;-66
2022/10/21 00:51:56;;;;;;;16.98;10.65;;;10.30;99.90;;;;;;5048877;28;20032;-67
2022/10/21 00:54:22;;;;;;;;;;;10.30;99.90;;;;;;5031127;28;20056;-67
2022/10/21 00:56:49;;;;;;;198.25;10.68;;;10.20;99.90;;;;;;5031300;28;19925;-67
2022/10/21 00:59:16;;;;;;;15.02;9.68;;;10.20;99.90;;;;;;5048964;28;20045;-67
2022/10/21 01:01:42;;;;;;;9.73;7.85;;;10.20;99.90;;;;;;5031003;28;20056;-66
2022/10/21 01:04:08;;;;;;;36.38;7.72;;;10.20;99.90;;;;;;5049191;28;20037;-67
2022/10/21 01:06:34;;;;;;;27.15;9.10;;;10.10;99.90;;;;;;5048101;28;20521;-67
2022/10/21 01:09:01;;;;;;;18.92;8.82;;;10.00;99.90;;;;;;5031440;28;20041;-67
2022/10/21 01:11:29;;;;;;;18.10;8.82;;;9.90;99.90;;;;;;5030090;28;20053;-66
2022/10/21 01:14:39;;;;;;;19.92;9.98;;;9.80;99.90;;;;;;5049188;28;20502;-66
2022/10/21 01:17:13;;;;;;;20.63;8.63;;;9.80;99.90;;;;;;5036559;28;20041;-67
2022/10/21 01:19:42;;;;;;;17.15;9.75;;;9.80;99.90;;;;;;5047951;28;20112;-66
2022/10/21 01:22:49;;;;;;;15.70;9.75;;;9.70;99.90;;;;;;5049562;28;20049;-67
2022/10/21 01:26:02;;;;;;;17.67;8.13;;;9.90;99.90;;;;;;5008778;28;20136;-66
2022/10/21 01:28:49;;;;;;;20.70;9.30;;;9.80;99.90;;;;;;5029025;28;20041;-66
2022/10/21 01:31:28;;;;;;;14.50;8.50;;;9.80;99.90;;;;;;5049236;28;20041;-66
2022/10/21 01:34:19;;;;;;;43.90;9.50;;;9.70;99.90;;;;;;5027379;28;20041;-66
2022/10/21 01:37:02;;;;;;;12.23;8.70;;;9.70;99.90;;;;;;5044196;28;20126;-66
2022/10/21 01:40:09;;;;;;;16.90;9.55;;;9.70;99.90;;;;;;5048029;28;20049;-66
2022/10/21 01:42:44;;;;;;;11.57;9.00;;;9.60;99.90;;;;;;5047248;28;20094;-66
2022/10/21 01:45:44;;;;;;;15.88;10.00;;;9.60;99.90;;;;;;5030064;28;20041;-66
2022/10/21 01:48:16;;;;;;;21.55;10.38;;;9.50;99.90;;;;;;5049078;28;20048;-66
2022/10/21 01:50:47;;;;;;;15.98;9.43;;;9.50;99.90;;;;;;5047555;28;20053;-66
2022/10/21 01:53:15;;;;;;;12.90;9.88;;;9.50;99.90;;;;;;5048678;28;20116;-66
2022/10/21 01:55:41;;;;;;;37.08;9.77;;;9.50;99.90;;;;;;5029979;28;20053;-66
2022/10/21 01:58:13;;;;;;;87.50;10.25;;;9.50;99.90;;;;;;5029546;28;20048;-66
2022/10/21 02:00:40;;;;;;;368.02;16.20;;;9.50;99.90;;;;;;5048743;28;20049;-66
2022/10/21 02:03:10;;;;;;;417.25;15.70;;;9.50;99.90;;;;;;5029575;28;20221;-66
2022/10/21 02:05:36;;;;;;;46.65;9.18;;;9.40;99.90;;;;;;5048145;28;20171;-66
2022/10/21 02:08:03;;;;;;;21.58;8.65;;;9.40;99.90;;;;;;5047268;28;20053;-66
2022/10/21 02:10:40;;;;;;;14.77;8.05;;;9.40;99.90;;;;;;5030288;28;20429;-66
2022/10/21 02:13:09;;;;;;;17.33;9.05;;;9.40;99.90;;;;;;5048167;28;20580;-66
2022/10/21 02:15:37;;;;;;;15.98;9.00;;;9.40;99.90;;;;;;5047463;28;20056;-66
2022/10/21 02:18:19;;;;;;;19.33;9.27;;;9.40;99.90;;;;;;5030211;28;20060;-66
2022/10/21 02:20:48;;;;;;;27.20;9.95;;;9.40;99.90;;;;;;5046428;28;20049;-67
2022/10/21 02:23:18;;;;;;;15.48;10.75;;;9.50;99.90;;;;;;5048122;28;20056;-66
2022/10/21 02:25:47;;;;;;;17.17;11.40;;;9.70;99.90;;;;;;5029050;28;20052;-66
2022/10/21 02:28:13;;;;;;;23.98;11.65;;;9.90;99.90;;;;;;5047718;28;20033;-66
2022/10/21 02:30:50;;;;;;;16.98;10.88;;;10.10;99.90;;;;;;5029275;28;20044;-66
2022/10/21 02:33:22;;;;;;;16.05;10.88;;;10.20;99.90;;;;;;5046504;28;20040;-66
2022/10/21 02:35:54;;;;;;;14.25;9.90;;;10.30;99.90;;;;;;5047564;28;20090;-66
2022/10/21 02:38:31;;;;;;;32.85;11.82;;;10.30;99.90;;;;;;5029038;28;20048;-66
2022/10/21 02:41:01;;;;;;;20.35;10.63;;;10.40;99.90;;;;;;5047081;28;20556;-66
2022/10/21 02:43:56;;;;;;;19.77;11.35;;;10.40;99.90;;;;;;5048080;28;20041;-66
2022/10/21 02:46:23;;;;;;;18.77;11.40;;;10.40;99.90;;;;;;5033080;28;20098;-66
2022/10/21 02:48:49;;;;;;;18.20;10.93;;;10.40;99.90;;;;;;5047733;28;20060;-66
2022/10/21 02:51:15;;;;;;;18.10;11.70;;;10.40;99.90;;;;;;5045630;28;20049;-66
2022/10/21 02:53:41;;;;;;;22.23;11.85;;;10.40;99.90;;;;;;5047266;28;20037;-66
2022/10/21 02:56:07;;;;;;;19.27;12.02;;;10.40;99.90;;;;;;5046722;28;20056;-66
2022/10/21 02:58:33;;;;;;;21.42;10.80;;;10.40;99.90;;;;;;5043412;28;20048;-66
2022/10/21 03:00:59;;;;;;;29.63;11.85;;;10.50;99.90;;;;;;5046743;28;20051;-66
2022/10/21 03:03:25;;;;;;;24.70;12.82;;;10.50;99.90;;;;;;5046404;28;20033;-66
2022/10/21 03:05:51;;;;;;;20.73;11.60;;;10.60;99.90;;;;;;5047580;28;20059;-66
2022/10/21 03:08:17;;;;;;;35.92;11.60;;;10.60;99.90;;;;;;5045386;28;20154;-66
2022/10/21 03:10:42;;;;;;;33.55;12.65;;;10.70;99.90;;;;;;5040051;28;20095;-69
2022/10/21 03:13:08;;;;;;;23.35;12.15;;;10.70;99.90;;;;;;5046091;28;20052;-66
2022/10/21 03:15:34;;;;;;;31.95;12.18;;;10.80;99.90;;;;;;5046827;28;20049;-67
2022/10/21 03:17:59;;;;;;;29.40;13.48;;;10.80;99.90;;;;;;5045780;28;20414;-68
2022/10/21 03:20:25;;;;;;;30.55;11.70;;;10.90;99.90;;;;;;5028156;28;20119;-68
2022/10/21 03:22:51;;;;;;;26.33;11.80;;;11.00;99.90;;;;;;5046555;28;20110;-68
2022/10/21 03:25:16;;;;;;;16.20;10.68;;;11.10;99.90;;;;;;5027679;28;20041;-68
2022/10/21 03:27:42;;;;;;;21.05;11.15;;;11.20;99.90;;;;;;5046297;28;20048;-68
2022/10/21 03:30:09;;;;;;;30.38;12.02;;;11.20;99.90;;;;;;5045692;28;20556;-68
2022/10/21 03:32:34;;;;;;;25.17;13.48;;;11.20;99.90;;;;;;5029040;28;20072;-68
2022/10/21 03:35:00;;;;;;;24.15;13.70;;;11.30;99.90;;;;;;5044280;28;20490;-68
2022/10/21 03:37:26;;;;;;;23.88;13.52;;;11.30;99.90;;;;;;5046579;28;20056;-68
2022/10/21 03:39:51;;;;;;;30.52;14.98;;;11.30;99.90;;;;;;5028419;28;20045;-68
2022/10/21 03:42:17;;;;;;;27.52;15.32;;;11.30;99.90;;;;;;5011364;28;20084;-68
2022/10/21 03:44:43;;;;;;;36.63;15.00;;;11.30;99.90;;;;;;5046165;28;20401;-68
2022/10/21 03:47:09;;;;;;;48.25;16.13;;;11.30;99.90;;;;;;5027629;28;20425;-68
2022/10/21 03:49:34;;;;;;;34.58;13.95;;;11.30;99.90;;;;;;5046785;28;20558;-68
2022/10/21 03:52:00;;;;;;;30.75;14.30;;;11.30;99.90;;;;;;5026901;28;20159;-69
2022/10/21 03:54:26;;;;;;;40.38;14.90;;;11.30;99.90;;;;;;5045995;28;20879;-69
2022/10/21 03:56:52;;;;;;;27.08;12.90;;;11.40;99.90;;;;;;5044920;28;20076;-69
2022/10/21 03:59:17;;;;;;;38.25;14.77;;;11.40;99.90;;;;;;5045313;28;20414;-69
2022/10/21 04:01:43;;;;;;;23.73;13.18;;;11.40;99.90;;;;;;5027609;28;20044;-68
2022/10/21 04:04:09;;;;;;;24.17;11.60;;;11.40;99.90;;;;;;5026942;28;20041;-68
2022/10/21 04:06:35;;;;;;;22.60;10.70;;;11.40;99.90;;;;;;5046524;28;20057;-69
2022/10/21 04:09:01;;;;;;;21.35;12.40;;;11.60;99.90;;;;;;5044823;28;20037;-69
2022/10/21 04:11:27;;;;;;;19.60;11.02;;;11.70;99.90;;;;;;5028085;28;20045;-71
2022/10/21 04:13:52;;;;;;;18.02;11.40;;;11.80;99.90;;;;;;5044429;28;20044;-68
2022/10/21 04:16:20;;;;;;;18.27;11.23;;;11.90;99.90;;;;;;5028076;28;20122;-69
2022/10/21 04:18:45;;;;;;;17.50;11.43;;;11.90;99.90;;;;;;5023766;28;20038;-68
2022/10/21 04:21:11;;;;;;;22.23;11.15;;;11.90;99.90;;;;;;5043403;28;20030;-69
2022/10/21 04:23:37;;;;;;;16.10;10.60;;;11.80;99.90;;;;;;5028643;28;20098;-68
2022/10/21 04:26:04;;;;;;;22.52;11.20;;;11.80;99.90;;;;;;5044762;28;20076;-68
2022/10/21 04:28:30;;;;;;;25.75;10.57;;;11.80;99.90;;;;;;5046575;28;20072;-68
2022/10/21 04:30:56;;;;;;;27.25;10.82;;;11.90;99.90;;;;;;5026439;28;20447;-68
2022/10/21 04:33:21;;;;;;;28.98;11.90;;;11.90;99.90;;;;;;5046053;28;20041;-68
2022/10/21 04:35:47;;;;;;;31.38;13.90;;;11.90;99.90;;;;;;5031279;28;20067;-69
2022/10/21 04:38:13;;;;;;;36.95;13.48;;;11.90;99.90;;;;;;5045410;28;20132;-69
2022/10/21 04:40:39;;;;;;;38.38;13.25;;;11.90;99.90;;;;;;5046094;28;20049;-69
2022/10/21 04:43:05;;;;;;;40.40;14.00;;;12.00;99.90;;;;;;5044645;28;20071;-69
2022/10/21 04:45:30;;;;;;;30.10;13.93;;;11.90;99.90;;;;;;5028293;28;20525;-68
2022/10/21 04:47:56;;;;;;;26.60;12.73;;;12.00;99.90;;;;;;5044548;28;20052;-68
2022/10/21 04:50:22;;;;;;;26.95;13.02;;;11.90;99.90;;;;;;5028671;28;20045;-68
2022/10/21 04:52:47;;;;;;;27.65;12.93;;;11.90;99.90;;;;;;5027009;28;20048;-68
2022/10/21 04:55:13;;;;;;;25.20;12.52;;;12.00;99.90;;;;;;5045164;28;20545;-68
2022/10/21 04:57:39;;;;;;;21.55;12.05;;;12.00;99.90;;;;;;5027676;28;20037;-68
2022/10/21 05:00:06;;;;;;;22.20;12.35;;;12.00;99.90;;;;;;5044726;28;20041;-68
2022/10/21 05:02:32;;;;;;;24.88;12.43;;;12.00;99.90;;;;;;5045704;28;20040;-68
2022/10/21 05:04:58;;;;;;;22.17;12.23;;;12.00;99.90;;;;;;5044340;28;20041;-68
2022/10/21 05:07:24;;;;;;;23.60;13.02;;;11.90;99.90;;;;;;5046197;28;20048;-68
2022/10/21 05:09:49;;;;;;;23.95;13.70;;;11.90;99.90;;;;;;5027011;28;20037;-68
2022/10/21 05:12:15;;;;;;;33.53;13.25;;;11.90;99.90;;;;;;5027086;28;20128;-68
2022/10/21 05:14:41;;;;;;;40.90;13.00;;;11.80;99.90;;;;;;5048981;28;20040;-68
2022/10/21 05:17:06;;;;;;;26.38;12.40;;;11.80;99.90;;;;;;5030802;28;20045;-67
2022/10/21 05:19:32;;;;;;;21.17;12.18;;;11.80;99.90;;;;;;5049342;28;20048;-68
2022/10/21 05:21:58;;;;;;;25.95;10.63;;;11.80;99.90;;;;;;5047858;28;20521;-68
2022/10/21 05:24:24;;;;;;;25.05;11.27;;;11.70;99.90;;;;;;5048581;28;20052;-68
2022/10/21 05:26:50;;;;;;;24.63;11.70;;;11.70;99.90;;;;;;5030397;28;20049;-68
2022/10/21 05:29:16;;;;;;;18.80;11.63;;;11.70;99.90;;;;;;5048739;28;20055;-68
2022/10/21 05:31:42;;;;;;;27.50;11.43;;;11.70;99.90;;;;;;5048486;28;20116;-68
2022/10/21 05:34:08;;;;;;;18.45;11.23;;;11.70;99.90;;;;;;5046866;28;20048;-68
2022/10/21 05:36:33;;;;;;;16.60;10.82;;;11.70;99.90;;;;;;5010835;28;20049;-68
2022/10/21 05:38:59;;;;;;;20.80;10.98;;;11.70;99.90;;;;;;5020702;28;20053;-68
2022/10/21 05:41:25;;;;;;;29.35;11.65;;;11.60;99.90;;;;;;5044088;28;20051;-68
2022/10/21 05:43:51;;;;;;;24.75;11.57;;;11.70;99.90;;;;;;5046224;28;20064;-68
2022/10/21 05:46:16;;;;;;;17.90;10.70;;;11.70;99.90;;;;;;5041782;28;20556;-68
2022/10/21 05:48:42;;;;;;;19.42;10.93;;;11.70;99.90;;;;;;5048007;28;20495;-68
2022/10/21 05:51:08;;;;;;;26.17;12.07;;;11.60;99.90;;;;;;5048372;28;20051;-68
2022/10/21 05:53:34;;;;;;;22.70;11.52;;;11.60;99.90;;;;;;5048158;28;20037;-68
2022/10/21 05:56:02;;;;;;;25.40;12.32;;;11.60;99.90;;;;;;5047489;28;20045;-68
2022/10/21 05:58:29;;;;;;;27.05;11.60;;;11.50;99.90;;;;;;5048720;28;20037;-68
2022/10/21 06:00:55;;;;;;;23.20;11.63;;;11.50;99.90;;;;;;5047701;28;20426;-68
2022/10/21 06:03:28;;;;;;;25.02;11.27;;;11.50;99.90;;;;;;5048545;28;20080;-68
2022/10/21 06:05:55;;;;;;;21.45;11.07;;;11.40;99.90;;;;;;5047376;28;20303;-68
2022/10/21 06:08:21;;;;;;;24.75;11.57;;;11.40;99.90;;;;;;5048572;28;20067;-67
2022/10/21 06:10:47;;;;;;;25.85;10.90;;;11.40;99.90;;;;;;5047268;28;20044;-68
2022/10/21 06:13:12;;;;;;;24.55;11.80;;;11.40;99.90;;;;;;5047898;28;20033;-68
2022/10/21 06:15:38;;;;;;;27.23;11.38;;;11.40;99.90;;;;;;5029854;28;20584;-68
2022/10/21 06:18:04;;;;;;;24.50;11.18;;;11.40;99.90;;;;;;5047199;28;20048;-68
2022/10/21 06:20:30;;;;;;;24.40;11.65;;;11.40;99.90;;;;;;5030217;28;20410;-67
2022/10/21 06:22:58;;;;;;;31.55;11.70;;;11.40;99.90;;;;;;5046116;28;20036;-67
2022/10/21 06:25:24;;;;;;;20.73;10.40;;;11.50;99.90;;;;;;5046584;28;20060;-67
2022/10/21 06:27:51;;;;;;;21.65;10.20;;;11.40;99.90;;;;;;5047087;28;20482;-68
2022/10/21 06:30:16;;;;;;;22.17;10.98;;;11.40;99.90;;;;;;5046958;28;20037;-67
2022/10/21 06:32:42;;;;;;;24.80;11.63;;;11.40;99.90;;;;;;5043889;28;20040;-67
2022/10/21 06:35:08;;;;;;;20.98;10.55;;;11.40;99.90;;;;;;5046495;28;20069;-67
2022/10/21 06:37:33;;;;;;;18.40;10.55;;;11.40;99.90;;;;;;5048213;28;20045;-67
2022/10/21 06:39:59;;;;;;;24.65;10.13;;;11.40;99.90;;;;;;5045679;28;20056;-67
2022/10/21 06:42:25;;;;;;;23.75;11.02;;;11.40;99.90;;;;;;5047843;28;20056;-67
2022/10/21 06:44:50;;;;;;;23.38;10.82;;;11.40;99.90;;;;;;5046364;28;20553;-67
2022/10/21 06:47:16;;;;;;;24.63;10.95;;;11.40;99.90;;;;;;5047051;28;20445;-67
2022/10/21 06:49:42;;;;;;;18.08;9.63;;;11.40;99.90;;;;;;5046969;28;20206;-67
2022/10/21 06:52:07;;;;;;;25.63;9.98;;;11.30;99.90;;;;;;5046988;28;20402;-67
2022/10/21 06:54:33;;;;;;;17.52;10.20;;;11.30;99.90;;;;;;5029669;28;20041;-67
2022/10/21 06:56:59;;;;;;;18.30;10.25;;;11.30;99.90;;;;;;5046197;28;20090;-67
2022/10/21 06:59:24;;;;;;;21.88;10.70;;;11.30;99.90;;;;;;5046298;28;20041;-67
2022/10/21 07:01:50;;;;;;;23.98;11.23;;;11.40;99.90;;;;;;5028208;28;20060;-67
2022/10/21 07:04:16;;;;;;;27.08;10.20;;;11.40;99.90;;;;;;5047245;28;20123;-67
2022/10/21 07:06:42;;;;;;;17.73;10.52;;;11.50;99.90;;;;;;5011997;28;20041;-67
2022/10/21 07:09:08;;;;;;;19.75;10.82;;;11.50;99.90;;;;;;5046822;28;20390;-67
2022/10/21 07:11:34;;;;;;;24.02;11.15;;;11.50;99.90;;;;;;5028904;28;20509;-67
2022/10/21 07:14:00;;;;;;;42.78;13.25;;;11.60;99.90;;;;;;5046347;28;20525;-67
2022/10/21 07:16:29;;;;;;;23.52;11.30;;;11.70;99.90;;;;;;5046351;28;20159;-67
2022/10/21 07:18:55;;;;;;;26.10;11.80;;;11.70;99.90;;;;;;5027979;28;20084;-67
2022/10/21 07:21:23;;;;;;;40.60;11.60;;;11.80;99.90;;;;;;5046757;28;20499;-68
2022/10/21 07:23:51;;;;;;;21.73;11.57;;;11.80;99.90;;;;;;5027850;28;20098;-67
2022/10/21 07:26:18;;;;;;;22.15;12.15;;;11.80;99.90;;;;;;5045151;28;20036;-67
2022/10/21 07:28:46;;;;;;;27.67;12.38;;;11.90;99.90;;;;;;5045721;28;20052;-67
2022/10/21 07:31:13;;;;;;;35.00;12.95;;;11.90;99.90;;;;;;5045136;28;20048;-67
2022/10/21 07:33:39;;;;;;;28.20;12.18;;;12.00;99.90;;;;;;5046627;28;20055;-67
2022/10/21 07:36:14;;;;;;;30.77;12.80;;;12.00;99.90;;;;;;5045127;28;20049;-67
2022/10/21 07:38:45;;;;;;;22.08;11.48;;;12.10;99.90;;;;;;5046195;28;20479;-67
2022/10/21 07:41:25;;;;;;;25.13;12.75;;;12.10;99.90;;;;;;5044621;28;20108;-67
2022/10/21 07:43:51;;;;;;;22.60;12.15;;;12.20;99.90;;;;;;5044625;28;20126;-67
2022/10/21 07:46:19;;;;;;;25.73;14.27;;;12.30;99.90;;;;;;5045719;28;20112;-67
2022/10/21 07:48:45;;;;;;;33.33;13.73;;;12.40;99.90;;;;;;5044575;28;20045;-67
2022/10/21 07:51:13;;;;;;;41.10;14.27;;;12.40;99.90;;;;;;5045500;28;20067;-67
2022/10/21 07:53:39;;;;;;;26.63;13.25;;;12.50;99.90;;;;;;5043508;28;20040;-67
2022/10/21 07:56:07;;;;;;;26.40;13.95;;;12.50;99.90;;;;;;5044825;28;20044;-67
2022/10/21 07:58:33;;;;;;;36.78;14.50;;;12.50;99.90;;;;;;5044701;28;20039;-66
2022/10/21 08:01:01;;;;;;;40.00;15.23;;;12.50;99.90;;;;;;5045262;28;20044;-67
2022/10/21 08:03:27;;;;;;;31.42;13.60;;;12.50;99.90;;;;;;5044165;28;20519;-67
2022/10/21 08:05:54;;;;;;;28.45;13.45;;;12.50;99.90;;;;;;5044018;28;20124;-67
2022/10/21 08:08:22;;;;;;;34.83;14.27;;;12.50;99.90;;;;;;5045385;28;20116;-67
2022/10/21 08:10:50;;;;;;;27.08;13.60;;;12.50;99.90;;;;;;5040577;28;20114;-67
2022/10/21 08:13:16;;;;;;;40.20;15.45;;;12.50;99.90;;;;;;5043826;28;20044;-67
2022/10/21 08:15:51;;;;;;;34.65;15.07;;;12.50;99.90;;;;;;5024284;28;20048;-67
2022/10/21 08:18:17;;;;;;;39.45;14.77;;;12.60;99.90;;;;;;5040408;28;20045;-67
2022/10/21 08:20:45;;;;;;;27.05;13.70;;;12.60;99.90;;;;;;5041370;28;20514;-67
2022/10/21 08:23:12;;;;;;;27.75;14.25;;;12.70;99.90;;;;;;5042932;28;20051;-67
2022/10/21 08:25:44;;;;;;;27.13;13.45;;;12.90;99.90;;;;;;5043718;28;20045;-67
2022/10/21 08:28:10;;;;;;;26.35;13.60;;;13.10;99.90;;;;;;5042676;28;20056;-67
2022/10/21 08:30:36;;;;;;;27.70;15.27;;;13.20;99.90;;;;;;5025096;28;20040;-66
2022/10/21 08:33:01;;;;;;;30.33;14.10;;;13.30;99.90;;;;;;5041560;28;20067;-67
2022/10/21 08:35:28;;;;;;;33.58;16.95;;;13.40;99.90;;;;;;5024302;28;20436;-67
2022/10/21 08:37:54;;;;;;;30.17;14.65;;;13.50;99.90;;;;;;5024114;28;20088;-67
2022/10/21 08:40:20;;;;;;;35.15;15.82;;;13.50;99.90;;;;;;5037397;28;20654;-67
2022/10/21 08:42:46;;;;;;;31.90;16.15;;;13.60;99.90;;;;;;5043434;28;20526;-67
2022/10/21 08:45:21;;;;;;;35.33;17.63;;;13.70;99.90;;;;;;5042000;28;20471;-67
2022/10/21 08:47:52;;;;;;;41.55;18.17;;;13.80;99.90;;;;;;5041813;28;20053;-67
2022/10/21 08:50:20;;;;;;;39.65;17.48;;;13.80;99.90;;;;;;5027414;28;20436;-67
2022/10/21 08:52:53;;;;;;;41.75;17.50;;;13.90;99.90;;;;;;5028678;28;20102;-67
2022/10/21 08:55:39;;;;;;;49.25;18.33;;;14.00;99.90;;;;;;5045910;28;20264;-67
2022/10/21 08:58:09;;;;;;;41.75;18.70;;;14.10;99.90;;;;;;5045946;28;20406;-67
2022/10/21 09:00:47;;;;;;;39.38;19.95;;;14.20;99.90;;;;;;5044265;28;20037;-67
2022/10/21 09:03:24;;;;;;;42.58;19.75;;;14.40;99.90;;;;;;5040014;28;20033;-67
2022/10/21 09:06:16;;;;;;;46.28;19.17;;;14.50;99.90;;;;;;5044657;28;20170;-67
2022/10/21 09:09:02;;;;;;;34.47;18.42;;;14.60;99.90;;;;;;5046932;28;20414;-66
2022/10/21 09:11:52;;;;;;;40.95;18.88;;;14.60;99.90;;;;;;5033948;28;20037;-67
2022/10/21 09:14:40;;;;;;;38.00;18.88;;;14.60;99.90;;;;;;5045112;28;20127;-66
2022/10/21 09:17:40;;;;;;;34.42;17.75;;;14.60;99.90;;;;;;5046350;28;20128;-66
2022/10/21 09:20:27;;;;;;;31.40;17.15;;;14.70;99.90;;;;;;5014183;28;20578;-66
2022/10/21 09:23:02;;;;;;;34.40;17.42;;;14.70;99.90;;;;;;5031898;28;20075;-67
2022/10/21 09:25:50;;;;;;;31.38;15.70;;;14.70;99.90;;;;;;5045711;28;20053;-66
2022/10/21 09:28:16;;;;;;;27.67;14.43;;;14.70;99.90;;;;;;5036037;28;20049;-67
2022/10/21 09:30:43;;;;;;;27.65;14.00;;;14.60;99.90;;;;;;5028845;28;20538;-66
2022/10/21 09:33:27;;;;;;;28.60;14.32;;;14.70;99.90;;;;;;5044876;28;20041;-67
2022/10/21 09:36:28;;;;;;;29.95;15.10;;;14.70;99.90;;;;;;5045410;28;20465;-66
2022/10/21 09:39:01;;;;;;;27.67;13.55;;;14.80;99.90;;;;;;5040723;28;20102;-66
2022/10/21 09:41:40;;;;;;;26.35;13.85;;;15.00;99.90;;;;;;5044476;28;20165;-66
2022/10/21 09:44:14;;;;;;;31.75;13.90;;;15.10;99.90;;;;;;5046964;28;20036;-66
2022/10/21 09:46:39;;;;;;;35.53;15.07;;;15.10;99.90;;;;;;5042291;28;20041;-66
2022/10/21 09:49:26;;;;;;;32.97;13.93;;;15.20;99.90;;;;;;5046035;28;20116;-67
2022/10/21 09:51:52;;;;;;;23.05;13.70;;;15.20;99.90;;;;;;5028089;28;20371;-66
2022/10/21 09:54:24;;;;;;;24.20;12.93;;;15.20;99.90;;;;;;5045688;28;20056;-66
2022/10/21 09:56:59;;;;;;;23.20;13.07;;;15.20;99.90;;;;;;5045989;28;20049;-67
2022/10/21 09:59:25;;;;;;;18.73;11.50;;;15.20;99.90;;;;;;5043442;28;20510;-66
2022/10/21 10:01:51;;;;;;;15.75;10.82;;;15.20;99.90;;;;;;5045949;28;20170;-66
2022/10/21 10:04:29;;;;;;;22.95;11.50;;;15.20;99.90;;;;;;5019409;28;20049;-66
2022/10/21 10:06:57;;;;;;;21.92;11.70;;;15.20;99.90;;;;;;5024646;28;20041;-66
2022/10/21 10:09:30;;;;;;;21.00;10.27;;;15.20;99.90;;;;;;5047892;28;20115;-66
2022/10/21 10:12:11;;;;;;;17.05;10.55;;;15.30;99.90;;;;;;5047039;28;20410;-66
2022/10/21 10:14:43;;;;;;;18.35;10.68;;;15.40;99.90;;;;;;5034030;28;20040;-66
2022/10/21 10:17:24;;;;;;;22.80;10.45;;;15.40;99.90;;;;;;5046530;28;20043;-66
2022/10/21 10:20:09;;;;;;;15.05;9.63;;;15.50;99.90;;;;;;5017204;28;20044;-66
2022/10/21 10:22:42;;;;;;;13.57;9.98;;;15.70;99.90;;;;;;5047263;28;20049;-66
2022/10/21 10:25:11;;;;;;;16.83;9.05;;;15.80;99.90;;;;;;5046631;28;20029;-66
2022/10/21 10:27:45;;;;;;;;;;;15.90;99.90;;;;;;5047743;28;20530;-67
2022/10/21 10:30:13;;;;;;;17.85;8.77;;;16.00;99.90;;;;;;5029351;28;19920;-66
2022/10/21 10:32:39;;;;;;;15.80;8.50;;;16.00;99.90;;;;;;5047254;28;20052;-67
2022/10/21 10:35:16;;;;;;;27.48;9.73;;;16.10;99.90;;;;;;5011928;28;20053;-66
2022/10/21 10:37:47;;;;;;;25.48;10.52;;;16.20;99.90;;;;;;5044256;28;20077;-67
2022/10/21 10:40:20;;;;;;;14.60;8.77;;;16.30;99.90;;;;;;5041020;28;20037;-66
2022/10/21 10:42:46;;;;;;;15.05;10.05;;;16.30;99.90;;;;;;4931763;28;20100;-66
2022/10/21 10:45:18;;;;;;;14.90;8.93;;;16.30;99.90;;;;;;4988090;28;20034;-67
2022/10/21 10:47:56;;;;;;;23.73;9.50;;;16.30;99.90;;;;;;4986460;28;20752;-67
2022/10/21 10:50:40;;;;;;;18.50;9.00;;;16.30;99.90;;;;;;4974821;28;20042;-66
2022/10/21 10:53:20;;;;;;;17.40;9.57;;;16.30;99.90;;;;;;4988229;28;20050;-67
2022/10/21 10:55:56;;;;;;;17.13;8.93;;;16.30;99.90;;;;;;4986968;28;20582;-66
2022/10/21 10:58:24;;;;;;;13.90;8.57;;;16.30;99.90;;;;;;4985534;28;20061;-66
2022/10/21 11:00:54;;;;;;;14.65;9.15;;;16.20;99.90;;;;;;4984175;28;20543;-67
2022/10/21 11:03:32;;;;;;;15.82;8.70;;;16.20;99.90;;;;;;4988514;28;20061;-66
2022/10/21 11:06:15;;;;;;;21.77;8.15;;;16.20;99.90;;;;;;4983251;28;20643;-67
2022/10/21 11:08:51;;;;;;;25.40;10.35;;;16.20;99.90;;;;;;4985182;28;20085;-66
2022/10/21 11:11:35;;;;;;;17.25;8.45;;;16.20;99.90;;;;;;4986969;28;20054;-66
2022/10/21 11:14:01;;;;;;;15.73;8.32;;;16.20;99.90;;;;;;4986919;28;20042;-66
2022/10/21 11:16:45;;;;;;;13.15;8.23;;;16.10;99.90;;;;;;4985811;28;20125;-67
2022/10/21 11:19:27;;;;;;;17.42;7.68;;;16.20;99.90;;;;;;4987602;28;20047;-66
2022/10/21 11:22:03;;;;;;;17.52;8.88;;;16.20;99.90;;;;;;4984925;28;20069;-66
2022/10/21 11:24:49;;;;;;;12.70;8.45;;;16.20;99.90;;;;;;4987439;28;20045;-66
2022/10/21 11:27:33;;;;;;;17.40;8.88;;;16.20;99.90;;;;;;4985002;28;20144;-66
2022/10/21 11:30:02;;;;;;;13.77;7.97;;;16.20;99.90;;;;;;4978026;28;20534;-66
2022/10/21 11:32:37;;;;;;;10.73;8.18;;;16.30;99.90;;;;;;4997592;28;20044;-66
2022/10/21 11:35:11;;;;;;;16.23;8.40;;;16.30;99.90;;;;;;4975486;28;20199;-70
2022/10/21 11:38:21;;;;;;;22.77;7.88;;;16.30;99.90;;;;;;4986904;28;20496;-66
2022/10/21 11:41:05;;;;;;;15.73;7.60;;;16.40;99.90;;;;;;4944368;29;20458;-66
2022/10/21 11:43:31;;;;;;;19.80;7.65;;;16.40;99.90;;;;;;4971268;28;20054;-66
2022/10/21 11:46:23;;;;;;;19.75;8.32;;;16.50;99.90;;;;;;4987472;28;20049;-66
2022/10/21 11:48:59;;;;;;;19.73;8.25;;;16.50;99.90;;;;;;4977581;28;20065;-66
2022/10/21 11:51:37;;;;;;;14.80;7.35;;;16.50;99.90;;;;;;4986017;28;20077;-66
2022/10/21 11:54:30;;;;;;;13.82;6.53;;;16.50;99.90;;;;;;4987849;28;20389;-66
2022/10/21 11:57:08;;;;;;;10.40;7.85;;;16.60;99.90;;;;;;5000120;28;20096;-66
2022/10/21 11:59:49;;;;;;;13.43;7.57;;;16.60;99.90;;;;;;4986296;28;20054;-66
2022/10/21 12:02:31;;;;;;;15.25;6.70;;;16.70;99.90;;;;;;4985837;28;20554;-66
2022/10/21 12:05:25;;;;;;;10.63;6.72;;;16.70;99.90;;;;;;4985981;28;20050;-66
2022/10/21 12:08:07;;;;;;;12.57;6.68;;;16.70;99.90;;;;;;4987115;28;20475;-66
2022/10/21 12:11:20;;;;;;;10.23;6.13;;;16.70;99.90;;;;;;4988994;28;20062;-66
2022/10/21 12:13:58;;;;;;;17.45;6.50;;;16.80;99.90;;;;;;4937951;29;20567;-66
2022/10/21 12:16:28;;;;;;;15.32;6.22;;;16.80;99.90;;;;;;4982117;28;20058;-66
2022/10/21 12:18:58;;;;;;;16.05;6.32;;;16.70;99.90;;;;;;4986866;28;20058;-66
2022/10/21 12:21:28;;;;;;;11.38;6.63;;;16.70;99.90;;;;;;4985682;28;20500;-66
2022/10/21 12:24:03;;;;;;;15.25;6.90;;;16.70;99.90;;;;;;4989950;28;20057;-66
2022/10/21 12:26:42;;;;;;;14.82;6.47;;;16.70;99.90;;;;;;4990127;28;20038;-66
2022/10/21 12:29:17;;;;;;;;;;;16.70;99.90;;;;;;4991783;28;20096;-66
2022/10/21 12:32:01;;;;;;;14.82;6.78;;;16.70;99.90;;;;;;5007392;28;19925;-66
2022/10/21 12:34:28;;;;;;;13.95;6.97;;;16.70;99.90;;;;;;4989971;28;20064;-66
2022/10/21 12:36:53;;;;;;;15.40;6.43;;;16.80;99.90;;;;;;4988392;28;20519;-66
2022/10/21 12:39:34;;;;;;;14.05;7.25;;;16.70;99.90;;;;;;4989570;28;20072;-66
2022/10/21 12:42:16;;;;;;;10.60;6.63;;;16.70;99.90;;;;;;4990540;28;20038;-66
2022/10/21 12:44:46;;;;;;;15.35;6.50;;;16.70;99.90;;;;;;4990351;28;20057;-66
2022/10/21 12:47:33;;;;;;;11.63;7.00;;;16.60;99.90;;;;;;4989619;28;20046;-66
2022/10/21 12:50:12;;;;;;;13.25;6.32;;;16.60;99.90;;;;;;4990149;28;20484;-66